sensor_id;sensor_type;location;lat;lon;timestamp;P1;durP1;ratioP1;P2;durP2;ratioP2
66761;SDS011;53672;48.176;16.338;2023-03-12T00:01:34;4.93;;;1.85;;
66761;SDS011;53672;48.176;16.338;2023-03-12T00:06:35;5.77;;;2.50;;
66761;SDS011;53672;48.176;16.338;2023-03-12T00:11:38;4.47;;;1.73;;
66761;SDS011;53672;48.176;16.338;2023-03-12T00:16:38;6.03;;;2.10;;
66761;SDS011;53672;48.176;16.338;2023-03-12T00:21:39;5.55;;;1.92;;
66761;SDS011;53672;48.176;16.338;2023-03-12T00:26:40;5.32;;;1.80;;
66761;SDS011;53672;48.176;16.338;2023-03-12T00:31:41;5.77;;;2.20;;
66761;SDS011;53672;48.176;16.338;2023-03-12T00:36:41;6.00;;;1.80;;
66761;SDS011;53672;48.176;16.338;2023-03-12T00:41:43;5.43;;;1.80;;
66761;SDS011;53672;48.176;16.338;2023-03-12T00:46:44;6.28;;;2.20;;
66761;SDS011;53672;48.176;16.338;2023-03-12T00:51:45;6.60;;;1.97;;
66761;SDS011;53672;48.176;16.338;2023-03-12T00:56:47;6.57;;;1.90;;
66761;SDS011;53672;48.176;16.338;2023-03-12T01:01:47;5.15;;;1.85;;
66761;SDS011;53672;48.176;16.338;2023-03-12T01:06:49;5.32;;;1.85;;
66761;SDS011;53672;48.176;16.338;2023-03-12T01:11:51;6.10;;;1.73;;
66761;SDS011;53672;48.176;16.338;2023-03-12T01:16:51;6.53;;;2.17;;
66761;SDS011;53672;48.176;16.338;2023-03-12T01:21:52;7.23;;;2.10;;
66761;SDS011;53672;48.176;16.338;2023-03-12T01:26:53;5.50;;;1.83;;
66761;SDS011;53672;48.176;16.338;2023-03-12T01:31:54;6.75;;;1.90;;
66761;SDS011;53672;48.176;16.338;2023-03-12T01:36:55;7.60;;;1.87;;
66761;SDS011;53672;48.176;16.338;2023-03-12T01:41:56;5.33;;;1.63;;
66761;SDS011;53672;48.176;16.338;2023-03-12T01:46:57;6.63;;;2.00;;
66761;SDS011;53672;48.176;16.338;2023-03-12T01:51:58;6.40;;;1.70;;
66761;SDS011;53672;48.176;16.338;2023-03-12T01:57:03;7.67;;;2.07;;
66761;SDS011;53672;48.176;16.338;2023-03-12T02:02:07;6.22;;;2.10;;
66761;SDS011;53672;48.176;16.338;2023-03-12T02:07:09;7.28;;;2.28;;
66761;SDS011;53672;48.176;16.338;2023-03-12T02:12:13;6.63;;;2.08;;
66761;SDS011;53672;48.176;16.338;2023-03-12T02:17:13;9.35;;;2.00;;
66761;SDS011;53672;48.176;16.338;2023-03-12T02:22:14;7.33;;;2.10;;
66761;SDS011;53672;48.176;16.338;2023-03-12T02:27:16;6.00;;;1.93;;
66761;SDS011;53672;48.176;16.338;2023-03-12T02:32:19;5.75;;;1.83;;
66761;SDS011;53672;48.176;16.338;2023-03-12T02:37:23;5.97;;;1.90;;
66761;SDS011;53672;48.176;16.338;2023-03-12T02:42:25;5.10;;;1.73;;
66761;SDS011;53672;48.176;16.338;2023-03-12T02:47:26;6.20;;;1.70;;
66761;SDS011;53672;48.176;16.338;2023-03-12T02:52:26;6.97;;;2.17;;
66761;SDS011;53672;48.176;16.338;2023-03-12T02:57:28;9.60;;;1.95;;
66761;SDS011;53672;48.176;16.338;2023-03-12T03:02:29;7.45;;;2.10;;
66761;SDS011;53672;48.176;16.338;2023-03-12T03:07:29;8.47;;;2.00;;
66761;SDS011;53672;48.176;16.338;2023-03-12T03:12:31;5.93;;;2.00;;
66761;SDS011;53672;48.176;16.338;2023-03-12T03:17:33;5.70;;;2.22;;
66761;SDS011;53672;48.176;16.338;2023-03-12T03:22:34;7.30;;;1.80;;
66761;SDS011;53672;48.176;16.338;2023-03-12T03:27:36;8.18;;;2.38;;
66761;SDS011;53672;48.176;16.338;2023-03-12T03:32:37;5.72;;;2.13;;
66761;SDS011;53672;48.176;16.338;2023-03-12T03:37:37;5.13;;;2.00;;
66761;SDS011;53672;48.176;16.338;2023-03-12T03:42:39;7.30;;;2.57;;
66761;SDS011;53672;48.176;16.338;2023-03-12T03:47:40;8.27;;;2.22;;
66761;SDS011;53672;48.176;16.338;2023-03-12T03:52:40;8.77;;;2.50;;
66761;SDS011;53672;48.176;16.338;2023-03-12T03:57:42;6.47;;;1.90;;
66761;SDS011;53672;48.176;16.338;2023-03-12T04:02:43;5.38;;;1.60;;
66761;SDS011;53672;48.176;16.338;2023-03-12T04:07:43;6.27;;;2.10;;
66761;SDS011;53672;48.176;16.338;2023-03-12T04:12:45;10.20;;;2.23;;
66761;SDS011;53672;48.176;16.338;2023-03-12T04:17:46;6.00;;;1.90;;
66761;SDS011;53672;48.176;16.338;2023-03-12T04:22:46;7.77;;;1.93;;
66761;SDS011;53672;48.176;16.338;2023-03-12T04:27:48;6.03;;;2.10;;
66761;SDS011;53672;48.176;16.338;2023-03-12T04:32:49;5.90;;;2.03;;
66761;SDS011;53672;48.176;16.338;2023-03-12T04:37:49;6.97;;;1.98;;
66761;SDS011;53672;48.176;16.338;2023-03-12T04:42:51;9.07;;;2.10;;
66761;SDS011;53672;48.176;16.338;2023-03-12T04:47:52;6.28;;;2.38;;
66761;SDS011;53672;48.176;16.338;2023-03-12T04:52:53;8.33;;;2.20;;
66761;SDS011;53672;48.176;16.338;2023-03-12T04:57:54;10.10;;;2.50;;
66761;SDS011;53672;48.176;16.338;2023-03-12T05:02:55;6.43;;;2.50;;
66761;SDS011;53672;48.176;16.338;2023-03-12T05:07:55;5.68;;;1.80;;
66761;SDS011;53672;48.176;16.338;2023-03-12T05:12:57;7.75;;;2.30;;
66761;SDS011;53672;48.176;16.338;2023-03-12T05:17:58;6.13;;;1.77;;
66761;SDS011;53672;48.176;16.338;2023-03-12T05:22:58;4.97;;;1.60;;
66761;SDS011;53672;48.176;16.338;2023-03-12T05:28:00;8.17;;;2.10;;
66761;SDS011;53672;48.176;16.338;2023-03-12T05:33:01;7.68;;;2.00;;
66761;SDS011;53672;48.176;16.338;2023-03-12T05:38:01;6.03;;;1.90;;
66761;SDS011;53672;48.176;16.338;2023-03-12T05:43:03;5.70;;;1.93;;
66761;SDS011;53672;48.176;16.338;2023-03-12T05:48:04;6.60;;;1.90;;
66761;SDS011;53672;48.176;16.338;2023-03-12T05:53:04;6.60;;;2.10;;
66761;SDS011;53672;48.176;16.338;2023-03-12T05:58:06;6.70;;;1.95;;
66761;SDS011;53672;48.176;16.338;2023-03-12T06:03:07;9.20;;;2.00;;
66761;SDS011;53672;48.176;16.338;2023-03-12T06:08:08;5.47;;;1.90;;
66761;SDS011;53672;48.176;16.338;2023-03-12T06:13:10;6.35;;;2.00;;
66761;SDS011;53672;48.176;16.338;2023-03-12T06:18:10;6.15;;;1.92;;
66761;SDS011;53672;48.176;16.338;2023-03-12T06:23:11;7.20;;;2.13;;
66761;SDS011;53672;48.176;16.338;2023-03-12T06:28:12;6.70;;;2.33;;
66761;SDS011;53672;48.176;16.338;2023-03-12T06:33:13;4.68;;;1.88;;
66761;SDS011;53672;48.176;16.338;2023-03-12T06:38:13;6.03;;;2.00;;
66761;SDS011;53672;48.176;16.338;2023-03-12T06:43:15;6.57;;;2.10;;
66761;SDS011;53672;48.176;16.338;2023-03-12T06:48:16;7.30;;;2.20;;
66761;SDS011;53672;48.176;16.338;2023-03-12T06:53:17;5.93;;;2.00;;
66761;SDS011;53672;48.176;16.338;2023-03-12T06:58:19;6.72;;;2.00;;
66761;SDS011;53672;48.176;16.338;2023-03-12T07:03:20;5.63;;;1.90;;
66761;SDS011;53672;48.176;16.338;2023-03-12T07:08:21;4.72;;;1.80;;
66761;SDS011;53672;48.176;16.338;2023-03-12T07:13:22;4.67;;;1.87;;
66761;SDS011;53672;48.176;16.338;2023-03-12T07:18:23;4.53;;;1.60;;
66761;SDS011;53672;48.176;16.338;2023-03-12T07:23:24;4.80;;;2.00;;
66761;SDS011;53672;48.176;16.338;2023-03-12T07:28:26;5.73;;;2.70;;
66761;SDS011;53672;48.176;16.338;2023-03-12T07:33:27;5.82;;;1.80;;
66761;SDS011;53672;48.176;16.338;2023-03-12T07:38:27;6.40;;;2.07;;
66761;SDS011;53672;48.176;16.338;2023-03-12T07:43:29;5.05;;;1.92;;
66761;SDS011;53672;48.176;16.338;2023-03-12T07:48:30;5.75;;;2.00;;
66761;SDS011;53672;48.176;16.338;2023-03-12T07:53:30;5.67;;;2.10;;
66761;SDS011;53672;48.176;16.338;2023-03-12T07:58:32;7.43;;;1.90;;
66761;SDS011;53672;48.176;16.338;2023-03-12T08:03:33;4.63;;;2.00;;
66761;SDS011;53672;48.176;16.338;2023-03-12T08:08:33;5.57;;;1.80;;
66761;SDS011;53672;48.176;16.338;2023-03-12T08:13:35;5.55;;;1.55;;
66761;SDS011;53672;48.176;16.338;2023-03-12T08:18:36;6.03;;;1.50;;
66761;SDS011;53672;48.176;16.338;2023-03-12T08:23:36;3.57;;;1.40;;
66761;SDS011;53672;48.176;16.338;2023-03-12T08:28:38;4.43;;;1.70;;
66761;SDS011;53672;48.176;16.338;2023-03-12T08:33:39;4.07;;;1.58;;
66761;SDS011;53672;48.176;16.338;2023-03-12T08:38:40;6.93;;;3.20;;
66761;SDS011;53672;48.176;16.338;2023-03-12T08:43:41;4.57;;;1.80;;
66761;SDS011;53672;48.176;16.338;2023-03-12T08:48:42;4.65;;;1.75;;
66761;SDS011;53672;48.176;16.338;2023-03-12T08:53:42;5.23;;;2.30;;
66761;SDS011;53672;48.176;16.338;2023-03-12T08:58:44;4.40;;;2.23;;
66761;SDS011;53672;48.176;16.338;2023-03-12T09:03:45;4.53;;;2.30;;
66761;SDS011;53672;48.176;16.338;2023-03-12T09:08:46;4.27;;;2.20;;
66761;SDS011;53672;48.176;16.338;2023-03-12T09:13:48;4.33;;;2.30;;
66761;SDS011;53672;48.176;16.338;2023-03-12T09:18:48;4.28;;;2.40;;
66761;SDS011;53672;48.176;16.338;2023-03-12T09:23:49;4.57;;;2.70;;
66761;SDS011;53672;48.176;16.338;2023-03-12T09:28:51;4.87;;;2.67;;
66761;SDS011;53672;48.176;16.338;2023-03-12T09:33:51;4.57;;;2.78;;
66761;SDS011;53672;48.176;16.338;2023-03-12T09:38:52;4.63;;;3.00;;
66761;SDS011;53672;48.176;16.338;2023-03-12T09:43:55;4.63;;;2.70;;
66761;SDS011;53672;48.176;16.338;2023-03-12T09:49:00;4.80;;;2.67;;
66761;SDS011;53672;48.176;16.338;2023-03-12T09:54:06;4.90;;;2.25;;
66761;SDS011;53672;48.176;16.338;2023-03-12T09:59:22;4.53;;;2.37;;
66761;SDS011;53672;48.176;16.338;2023-03-12T10:04:28;4.28;;;2.70;;
66761;SDS011;53672;48.176;16.338;2023-03-12T10:09:42;3.75;;;2.65;;
66761;SDS011;53672;48.176;16.338;2023-03-12T10:15:03;4.43;;;2.90;;
66761;SDS011;53672;48.176;16.338;2023-03-12T10:26:02;4.90;;;3.30;;
66761;SDS011;53672;48.176;16.338;2023-03-12T10:31:11;5.32;;;3.28;;
66761;SDS011;53672;48.176;16.338;2023-03-12T10:36:16;6.97;;;3.60;;
66761;SDS011;53672;48.176;16.338;2023-03-12T10:41:20;6.18;;;3.90;;
66761;SDS011;53672;48.176;16.338;2023-03-12T10:46:32;4.60;;;3.42;;
66761;SDS011;53672;48.176;16.338;2023-03-12T10:51:52;5.13;;;3.97;;
66761;SDS011;53672;48.176;16.338;2023-03-12T10:56:54;7.80;;;3.90;;
66761;SDS011;53672;48.176;16.338;2023-03-12T11:01:55;5.37;;;3.80;;
66761;SDS011;53672;48.176;16.338;2023-03-12T11:07:04;4.97;;;3.45;;
66761;SDS011;53672;48.176;16.338;2023-03-12T11:12:24;5.10;;;3.43;;
66761;SDS011;53672;48.176;16.338;2023-03-12T11:17:28;6.53;;;3.70;;
66761;SDS011;53672;48.176;16.338;2023-03-12T11:22:29;5.47;;;3.30;;
66761;SDS011;53672;48.176;16.338;2023-03-12T11:27:35;7.55;;;3.47;;
66761;SDS011;53672;48.176;16.338;2023-03-12T11:32:42;6.75;;;3.30;;
66761;SDS011;53672;48.176;16.338;2023-03-12T11:37:49;5.40;;;3.50;;
66761;SDS011;53672;48.176;16.338;2023-03-12T11:43:01;6.15;;;3.28;;
66761;SDS011;53672;48.176;16.338;2023-03-12T11:48:14;6.07;;;3.87;;
66761;SDS011;53672;48.176;16.338;2023-03-12T11:53:34;5.80;;;3.70;;
66761;SDS011;53672;48.176;16.338;2023-03-12T11:58:49;7.03;;;3.47;;
66761;SDS011;53672;48.176;16.338;2023-03-12T12:04:08;9.47;;;5.23;;
66761;SDS011;53672;48.176;16.338;2023-03-12T12:09:29;6.00;;;3.35;;
66761;SDS011;53672;48.176;16.338;2023-03-12T12:14:39;8.60;;;3.20;;
66761;SDS011;53672;48.176;16.338;2023-03-12T12:19:54;6.25;;;3.53;;
66761;SDS011;53672;48.176;16.338;2023-03-12T12:25:11;6.93;;;3.97;;
66761;SDS011;53672;48.176;16.338;2023-03-12T12:30:21;6.53;;;3.23;;
66761;SDS011;53672;48.176;16.338;2023-03-12T12:35:33;6.18;;;3.50;;
66761;SDS011;53672;48.176;16.338;2023-03-12T12:40:36;6.70;;;3.80;;
66761;SDS011;53672;48.176;16.338;2023-03-12T12:45:40;6.10;;;3.25;;
66761;SDS011;53672;48.176;16.338;2023-03-12T12:50:42;6.28;;;3.40;;
66761;SDS011;53672;48.176;16.338;2023-03-12T12:55:45;7.30;;;3.50;;
66761;SDS011;53672;48.176;16.338;2023-03-12T13:00:54;6.93;;;3.75;;
66761;SDS011;53672;48.176;16.338;2023-03-12T13:05:58;7.47;;;3.20;;
66761;SDS011;53672;48.176;16.338;2023-03-12T13:11:02;7.75;;;3.83;;
66761;SDS011;53672;48.176;16.338;2023-03-12T13:16:17;6.30;;;3.30;;
66761;SDS011;53672;48.176;16.338;2023-03-12T13:21:32;6.67;;;2.80;;
66761;SDS011;53672;48.176;16.338;2023-03-12T13:26:44;5.82;;;2.80;;
66761;SDS011;53672;48.176;16.338;2023-03-12T13:31:51;6.67;;;2.70;;
66761;SDS011;53672;48.176;16.338;2023-03-12T13:36:56;5.63;;;2.85;;
66761;SDS011;53672;48.176;16.338;2023-03-12T13:41:58;6.20;;;2.67;;
66761;SDS011;53672;48.176;16.338;2023-03-12T13:47:01;8.40;;;2.55;;
66761;SDS011;53672;48.176;16.338;2023-03-12T13:52:11;6.65;;;2.53;;
66761;SDS011;53672;48.176;16.338;2023-03-12T13:57:29;6.83;;;2.70;;
66761;SDS011;53672;48.176;16.338;2023-03-12T14:02:35;7.57;;;2.67;;
66761;SDS011;53672;48.176;16.338;2023-03-12T14:08:05;8.17;;;3.20;;
66761;SDS011;53672;48.176;16.338;2023-03-12T14:13:19;6.43;;;2.78;;
66761;SDS011;53672;48.176;16.338;2023-03-12T14:18:29;6.57;;;2.65;;
66761;SDS011;53672;48.176;16.338;2023-03-12T14:23:36;6.70;;;2.70;;
66761;SDS011;53672;48.176;16.338;2023-03-12T14:28:39;6.72;;;2.85;;
66761;SDS011;53672;48.176;16.338;2023-03-12T14:33:45;6.20;;;3.00;;
66761;SDS011;53672;48.176;16.338;2023-03-12T14:38:52;9.25;;;3.10;;
66761;SDS011;53672;48.176;16.338;2023-03-12T14:44:02;6.60;;;2.80;;
66761;SDS011;53672;48.176;16.338;2023-03-12T14:49:04;5.47;;;2.50;;
66761;SDS011;53672;48.176;16.338;2023-03-12T14:54:14;5.30;;;2.50;;
66761;SDS011;53672;48.176;16.338;2023-03-12T14:59:20;6.28;;;2.72;;
66761;SDS011;53672;48.176;16.338;2023-03-12T15:04:23;6.72;;;2.50;;
66761;SDS011;53672;48.176;16.338;2023-03-12T15:09:27;6.45;;;2.78;;
66761;SDS011;53672;48.176;16.338;2023-03-12T15:14:31;6.72;;;2.65;;
66761;SDS011;53672;48.176;16.338;2023-03-12T15:19:37;7.20;;;3.20;;
66761;SDS011;53672;48.176;16.338;2023-03-12T15:24:40;9.75;;;4.05;;
66761;SDS011;53672;48.176;16.338;2023-03-12T15:29:41;7.22;;;3.85;;
66761;SDS011;53672;48.176;16.338;2023-03-12T15:34:43;8.07;;;4.03;;
66761;SDS011;53672;48.176;16.338;2023-03-12T15:39:45;6.87;;;3.60;;
66761;SDS011;53672;48.176;16.338;2023-03-12T15:44:48;7.00;;;3.05;;
66761;SDS011;53672;48.176;16.338;2023-03-12T15:49:53;8.07;;;2.95;;
66761;SDS011;53672;48.176;16.338;2023-03-12T15:55:04;6.53;;;3.10;;
66761;SDS011;53672;48.176;16.338;2023-03-12T16:00:22;6.25;;;2.92;;
66761;SDS011;53672;48.176;16.338;2023-03-12T16:05:28;6.37;;;3.30;;
66761;SDS011;53672;48.176;16.338;2023-03-12T16:10:32;10.73;;;3.72;;
66761;SDS011;53672;48.176;16.338;2023-03-12T16:15:36;8.30;;;3.50;;
66761;SDS011;53672;48.176;16.338;2023-03-12T16:20:38;8.30;;;3.53;;
66761;SDS011;53672;48.176;16.338;2023-03-12T16:25:41;7.50;;;3.00;;
66761;SDS011;53672;48.176;16.338;2023-03-12T16:30:44;6.77;;;3.07;;
66761;SDS011;53672;48.176;16.338;2023-03-12T16:35:44;6.97;;;2.97;;
66761;SDS011;53672;48.176;16.338;2023-03-12T16:40:47;8.48;;;3.13;;
66761;SDS011;53672;48.176;16.338;2023-03-12T16:45:51;9.68;;;3.33;;
66761;SDS011;53672;48.176;16.338;2023-03-12T16:50:53;7.07;;;3.20;;
66761;SDS011;53672;48.176;16.338;2023-03-12T16:55:58;7.57;;;3.00;;
66761;SDS011;53672;48.176;16.338;2023-03-12T17:01:00;7.57;;;3.10;;
66761;SDS011;53672;48.176;16.338;2023-03-12T17:06:02;7.50;;;3.20;;
66761;SDS011;53672;48.176;16.338;2023-03-12T17:11:09;7.93;;;3.30;;
66761;SDS011;53672;48.176;16.338;2023-03-12T17:16:14;8.43;;;3.77;;
66761;SDS011;53672;48.176;16.338;2023-03-12T17:21:16;8.32;;;3.40;;
66761;SDS011;53672;48.176;16.338;2023-03-12T17:26:20;7.45;;;3.90;;
66761;SDS011;53672;48.176;16.338;2023-03-12T17:31:21;7.13;;;3.08;;
66761;SDS011;53672;48.176;16.338;2023-03-12T17:36:22;9.98;;;3.88;;
66761;SDS011;53672;48.176;16.338;2023-03-12T17:41:24;10.40;;;4.03;;
66761;SDS011;53672;48.176;16.338;2023-03-12T17:46:27;10.25;;;4.10;;
66761;SDS011;53672;48.176;16.338;2023-03-12T17:51:28;12.03;;;4.37;;
66761;SDS011;53672;48.176;16.338;2023-03-12T17:56:31;9.05;;;3.67;;
66761;SDS011;53672;48.176;16.338;2023-03-12T18:01:32;12.38;;;4.93;;
66761;SDS011;53672;48.176;16.338;2023-03-12T18:06:33;10.50;;;4.20;;
66761;SDS011;53672;48.176;16.338;2023-03-12T18:11:37;11.20;;;5.20;;
66761;SDS011;53672;48.176;16.338;2023-03-12T18:16:39;11.53;;;4.73;;
66761;SDS011;53672;48.176;16.338;2023-03-12T18:21:40;10.00;;;4.72;;
66761;SDS011;53672;48.176;16.338;2023-03-12T18:26:42;10.60;;;4.97;;
66761;SDS011;53672;48.176;16.338;2023-03-12T18:31:43;9.90;;;4.53;;
66761;SDS011;53672;48.176;16.338;2023-03-12T18:36:45;9.75;;;4.72;;
66761;SDS011;53672;48.176;16.338;2023-03-12T18:41:48;9.23;;;4.30;;
66761;SDS011;53672;48.176;16.338;2023-03-12T18:46:49;8.98;;;3.92;;
66761;SDS011;53672;48.176;16.338;2023-03-12T18:51:50;9.65;;;3.40;;
66761;SDS011;53672;48.176;16.338;2023-03-12T18:56:53;11.30;;;4.53;;
66761;SDS011;53672;48.176;16.338;2023-03-12T19:01:57;8.93;;;4.20;;
66761;SDS011;53672;48.176;16.338;2023-03-12T19:06:59;8.93;;;3.70;;
66761;SDS011;53672;48.176;16.338;2023-03-12T19:12:02;8.90;;;4.20;;
66761;SDS011;53672;48.176;16.338;2023-03-12T19:17:04;11.27;;;4.25;;
66761;SDS011;53672;48.176;16.338;2023-03-12T19:22:05;11.95;;;4.40;;
66761;SDS011;53672;48.176;16.338;2023-03-12T19:27:08;9.57;;;5.13;;
66761;SDS011;53672;48.176;16.338;2023-03-12T19:32:09;12.43;;;5.10;;
66761;SDS011;53672;48.176;16.338;2023-03-12T19:37:10;10.98;;;5.10;;
66761;SDS011;53672;48.176;16.338;2023-03-12T19:42:14;14.37;;;5.80;;
66761;SDS011;53672;48.176;16.338;2023-03-12T19:47:15;11.85;;;5.43;;
66761;SDS011;53672;48.176;16.338;2023-03-12T19:52:17;12.85;;;5.50;;
66761;SDS011;53672;48.176;16.338;2023-03-12T19:57:19;13.00;;;6.03;;
66761;SDS011;53672;48.176;16.338;2023-03-12T20:02:21;10.65;;;5.35;;
66761;SDS011;53672;48.176;16.338;2023-03-12T20:07:21;12.83;;;6.00;;
66761;SDS011;53672;48.176;16.338;2023-03-12T20:12:24;11.63;;;5.60;;
66761;SDS011;53672;48.176;16.338;2023-03-12T20:17:25;11.77;;;4.70;;
66761;SDS011;53672;48.176;16.338;2023-03-12T20:22:26;10.95;;;4.10;;
66761;SDS011;53672;48.176;16.338;2023-03-12T20:27:30;7.95;;;4.43;;
66761;SDS011;53672;48.176;16.338;2023-03-12T20:32:31;12.35;;;4.97;;
66761;SDS011;53672;48.176;16.338;2023-03-12T20:37:32;9.52;;;4.25;;
66761;SDS011;53672;48.176;16.338;2023-03-12T20:42:34;8.93;;;3.90;;
66761;SDS011;53672;48.176;16.338;2023-03-12T20:47:35;7.68;;;3.33;;
66761;SDS011;53672;48.176;16.338;2023-03-12T20:52:37;7.83;;;3.93;;
66761;SDS011;53672;48.176;16.338;2023-03-12T20:57:40;11.68;;;4.07;;
66761;SDS011;53672;48.176;16.338;2023-03-12T21:02:40;8.87;;;4.03;;
66761;SDS011;53672;48.176;16.338;2023-03-12T21:07:41;10.35;;;4.10;;
66761;SDS011;53672;48.176;16.338;2023-03-12T21:12:44;7.55;;;3.55;;
66761;SDS011;53672;48.176;16.338;2023-03-12T21:17:45;9.60;;;4.15;;
66761;SDS011;53672;48.176;16.338;2023-03-12T21:22:46;11.45;;;4.30;;
66761;SDS011;53672;48.176;16.338;2023-03-12T21:27:48;8.50;;;4.13;;
66761;SDS011;53672;48.176;16.338;2023-03-12T21:32:49;8.53;;;3.63;;
66761;SDS011;53672;48.176;16.338;2023-03-12T21:37:49;9.98;;;4.43;;
66761;SDS011;53672;48.176;16.338;2023-03-12T21:42:51;8.95;;;4.13;;
66761;SDS011;53672;48.176;16.338;2023-03-12T21:47:52;9.33;;;4.27;;
66761;SDS011;53672;48.176;16.338;2023-03-12T21:52:52;9.87;;;4.17;;
66761;SDS011;53672;48.176;16.338;2023-03-12T21:57:54;9.38;;;4.15;;
66761;SDS011;53672;48.176;16.338;2023-03-12T22:02:54;9.98;;;4.32;;
66761;SDS011;53672;48.176;16.338;2023-03-12T22:07:55;9.13;;;4.87;;
66761;SDS011;53672;48.176;16.338;2023-03-12T22:12:57;9.57;;;4.50;;
66761;SDS011;53672;48.176;16.338;2023-03-12T22:17:57;10.63;;;4.63;;
66761;SDS011;53672;48.176;16.338;2023-03-12T22:22:58;11.67;;;5.20;;
66761;SDS011;53672;48.176;16.338;2023-03-12T22:28:00;10.00;;;4.47;;
66761;SDS011;53672;48.176;16.338;2023-03-12T22:33:00;10.25;;;4.40;;
66761;SDS011;53672;48.176;16.338;2023-03-12T22:38:01;8.97;;;4.03;;
66761;SDS011;53672;48.176;16.338;2023-03-12T22:43:03;12.50;;;5.20;;
66761;SDS011;53672;48.176;16.338;2023-03-12T22:48:04;12.25;;;5.57;;
66761;SDS011;53672;48.176;16.338;2023-03-12T22:53:05;10.17;;;5.43;;
66761;SDS011;53672;48.176;16.338;2023-03-12T22:58:07;12.30;;;5.80;;
66761;SDS011;53672;48.176;16.338;2023-03-12T23:03:07;9.75;;;5.38;;
66761;SDS011;53672;48.176;16.338;2023-03-12T23:08:08;12.37;;;5.83;;
66761;SDS011;53672;48.176;16.338;2023-03-12T23:13:09;12.60;;;5.80;;
66761;SDS011;53672;48.176;16.338;2023-03-12T23:18:10;13.27;;;6.30;;
66761;SDS011;53672;48.176;16.338;2023-03-12T23:23:11;12.83;;;5.87;;
66761;SDS011;53672;48.176;16.338;2023-03-12T23:28:13;12.93;;;5.87;;
66761;SDS011;53672;48.176;16.338;2023-03-12T23:33:14;14.00;;;6.28;;
66761;SDS011;53672;48.176;16.338;2023-03-12T23:38:14;10.77;;;5.63;;
66761;SDS011;53672;48.176;16.338;2023-03-12T23:43:16;10.77;;;5.10;;
66761;SDS011;53672;48.176;16.338;2023-03-12T23:48:17;11.20;;;5.72;;
66761;SDS011;53672;48.176;16.338;2023-03-12T23:53:17;10.50;;;5.40;;
66761;SDS011;53672;48.176;16.338;2023-03-12T23:58:19;10.03;;;5.10;;
